sensor_id;sensor_type;location;lat;lon;timestamp;P1;durP1;ratioP1;P2;durP2;ratioP2
51616;SDS011;37697;52.588;13.394;2023-03-03T00:00:48;22.70;;;12.10;;
51616;SDS011;37697;52.588;13.394;2023-03-03T00:06:14;19.40;;;11.40;;
51616;SDS011;37697;52.588;13.394;2023-03-03T00:11:40;19.10;;;10.20;;
51616;SDS011;37697;52.588;13.394;2023-03-03T00:16:58;22.90;;;12.50;;
51616;SDS011;37697;52.588;13.394;2023-03-03T00:22:35;23.30;;;12.90;;
51616;SDS011;37697;52.588;13.394;2023-03-03T00:28:01;21.80;;;13.30;;
51616;SDS011;37697;52.588;13.394;2023-03-03T00:33:41;20.10;;;12.30;;
51616;SDS011;37697;52.588;13.394;2023-03-03T00:39:17;23.50;;;12.70;;
51616;SDS011;37697;52.588;13.394;2023-03-03T00:44:52;21.10;;;11.70;;
51616;SDS011;37697;52.588;13.394;2023-03-03T00:50:26;21.00;;;12.40;;
51616;SDS011;37697;52.588;13.394;2023-03-03T00:55:55;23.80;;;12.60;;
51616;SDS011;37697;52.588;13.394;2023-03-03T01:01:22;22.20;;;12.40;;
51616;SDS011;37697;52.588;13.394;2023-03-03T01:06:48;18.40;;;11.20;;
51616;SDS011;37697;52.588;13.394;2023-03-03T01:12:13;21.10;;;11.50;;
51616;SDS011;37697;52.588;13.394;2023-03-03T01:17:40;23.50;;;13.00;;
51616;SDS011;37697;52.588;13.394;2023-03-03T01:23:06;23.20;;;13.40;;
51616;SDS011;37697;52.588;13.394;2023-03-03T01:28:33;22.40;;;12.50;;
51616;SDS011;37697;52.588;13.394;2023-03-03T01:33:59;21.20;;;12.40;;
51616;SDS011;37697;52.588;13.394;2023-03-03T01:39:25;20.50;;;11.20;;
51616;SDS011;37697;52.588;13.394;2023-03-03T01:50:39;19.30;;;11.60;;
51616;SDS011;37697;52.588;13.394;2023-03-03T01:56:09;23.00;;;13.20;;
51616;SDS011;37697;52.588;13.394;2023-03-03T02:01:35;23.50;;;13.30;;
51616;SDS011;37697;52.588;13.394;2023-03-03T02:07:02;22.40;;;13.00;;
51616;SDS011;37697;52.588;13.394;2023-03-03T02:12:32;21.20;;;12.00;;
51616;SDS011;37697;52.588;13.394;2023-03-03T02:18:02;23.10;;;13.50;;
51616;SDS011;37697;52.588;13.394;2023-03-03T02:23:32;23.30;;;14.50;;
51616;SDS011;37697;52.588;13.394;2023-03-03T02:29:02;19.40;;;11.20;;
51616;SDS011;37697;52.588;13.394;2023-03-03T02:34:27;25.10;;;14.20;;
51616;SDS011;37697;52.588;13.394;2023-03-03T02:39:53;22.80;;;12.70;;
51616;SDS011;37697;52.588;13.394;2023-03-03T02:45:11;25.40;;;13.50;;
51616;SDS011;37697;52.588;13.394;2023-03-03T02:50:37;25.20;;;13.20;;
51616;SDS011;37697;52.588;13.394;2023-03-03T02:56:03;21.30;;;12.70;;
51616;SDS011;37697;52.588;13.394;2023-03-03T03:01:30;23.10;;;12.80;;
51616;SDS011;37697;52.588;13.394;2023-03-03T03:06:56;23.80;;;12.60;;
51616;SDS011;37697;52.588;13.394;2023-03-03T03:12:22;23.70;;;11.80;;
51616;SDS011;37697;52.588;13.394;2023-03-03T03:17:48;19.60;;;11.00;;
51616;SDS011;37697;52.588;13.394;2023-03-03T03:23:14;19.90;;;11.90;;
51616;SDS011;37697;52.588;13.394;2023-03-03T03:28:42;17.90;;;10.80;;
51616;SDS011;37697;52.588;13.394;2023-03-03T03:34:08;20.50;;;11.10;;
51616;SDS011;37697;52.588;13.394;2023-03-03T03:39:33;16.80;;;9.90;;
51616;SDS011;37697;52.588;13.394;2023-03-03T03:44:59;17.20;;;10.20;;
51616;SDS011;37697;52.588;13.394;2023-03-03T03:50:25;16.20;;;9.60;;
51616;SDS011;37697;52.588;13.394;2023-03-03T03:55:51;18.80;;;10.10;;
51616;SDS011;37697;52.588;13.394;2023-03-03T04:01:17;13.70;;;7.70;;
51616;SDS011;37697;52.588;13.394;2023-03-03T04:06:42;21.20;;;11.00;;
51616;SDS011;37697;52.588;13.394;2023-03-03T04:12:09;19.10;;;9.70;;
51616;SDS011;37697;52.588;13.394;2023-03-03T04:17:34;11.70;;;6.20;;
51616;SDS011;37697;52.588;13.394;2023-03-03T04:23:01;17.80;;;10.70;;
51616;SDS011;37697;52.588;13.394;2023-03-03T04:28:26;14.50;;;9.00;;
51616;SDS011;37697;52.588;13.394;2023-03-03T04:33:52;18.30;;;10.60;;
51616;SDS011;37697;52.588;13.394;2023-03-03T04:39:18;14.00;;;7.80;;
51616;SDS011;37697;52.588;13.394;2023-03-03T04:44:44;14.40;;;8.90;;
51616;SDS011;37697;52.588;13.394;2023-03-03T04:50:10;14.60;;;9.00;;
51616;SDS011;37697;52.588;13.394;2023-03-03T04:55:36;15.00;;;8.20;;
51616;SDS011;37697;52.588;13.394;2023-03-03T05:01:02;15.90;;;9.70;;
51616;SDS011;37697;52.588;13.394;2023-03-03T05:06:29;21.20;;;11.40;;
51616;SDS011;37697;52.588;13.394;2023-03-03T05:11:54;14.90;;;9.10;;
51616;SDS011;37697;52.588;13.394;2023-03-03T05:17:20;20.90;;;10.70;;
51616;SDS011;37697;52.588;13.394;2023-03-03T05:22:46;14.80;;;8.70;;
51616;SDS011;37697;52.588;13.394;2023-03-03T05:28:04;13.90;;;7.90;;
51616;SDS011;37697;52.588;13.394;2023-03-03T05:33:30;16.90;;;9.70;;
51616;SDS011;37697;52.588;13.394;2023-03-03T05:38:56;20.70;;;10.70;;
51616;SDS011;37697;52.588;13.394;2023-03-03T05:44:21;17.80;;;9.90;;
51616;SDS011;37697;52.588;13.394;2023-03-03T05:49:47;18.30;;;10.60;;
51616;SDS011;37697;52.588;13.394;2023-03-03T05:55:13;12.90;;;6.40;;
51616;SDS011;37697;52.588;13.394;2023-03-03T06:00:39;18.60;;;10.60;;
51616;SDS011;37697;52.588;13.394;2023-03-03T06:06:05;13.60;;;7.10;;
51616;SDS011;37697;52.588;13.394;2023-03-03T06:11:31;18.80;;;10.10;;
51616;SDS011;37697;52.588;13.394;2023-03-03T06:16:57;14.20;;;8.00;;
51616;SDS011;37697;52.588;13.394;2023-03-03T06:22:22;15.10;;;8.80;;
51616;SDS011;37697;52.588;13.394;2023-03-03T06:27:47;13.10;;;8.30;;
51616;SDS011;37697;52.588;13.394;2023-03-03T06:33:13;16.20;;;8.70;;
51616;SDS011;37697;52.588;13.394;2023-03-03T06:38:39;11.40;;;7.00;;
51616;SDS011;37697;52.588;13.394;2023-03-03T06:44:05;13.40;;;7.30;;
51616;SDS011;37697;52.588;13.394;2023-03-03T06:49:32;13.50;;;6.90;;
51616;SDS011;37697;52.588;13.394;2023-03-03T06:54:58;16.90;;;9.50;;
51616;SDS011;37697;52.588;13.394;2023-03-03T07:00:33;17.90;;;9.60;;
51616;SDS011;37697;52.588;13.394;2023-03-03T07:06:01;15.20;;;8.50;;
51616;SDS011;37697;52.588;13.394;2023-03-03T07:11:44;17.70;;;9.20;;
51616;SDS011;37697;52.588;13.394;2023-03-03T07:17:12;17.30;;;8.30;;
51616;SDS011;37697;52.588;13.394;2023-03-03T07:22:40;17.90;;;10.10;;
51616;SDS011;37697;52.588;13.394;2023-03-03T07:28:10;14.80;;;7.20;;
51616;SDS011;37697;52.588;13.394;2023-03-03T07:33:44;14.70;;;7.50;;
51616;SDS011;37697;52.588;13.394;2023-03-03T07:39:17;15.40;;;7.30;;
51616;SDS011;37697;52.588;13.394;2023-03-03T07:44:50;15.40;;;7.60;;
51616;SDS011;37697;52.588;13.394;2023-03-03T07:50:22;17.20;;;8.90;;
51616;SDS011;37697;52.588;13.394;2023-03-03T07:55:48;20.00;;;9.80;;
51616;SDS011;37697;52.588;13.394;2023-03-03T08:07:10;15.40;;;7.80;;
51616;SDS011;37697;52.588;13.394;2023-03-03T08:12:40;14.70;;;8.00;;
51616;SDS011;37697;52.588;13.394;2023-03-03T08:18:12;14.10;;;7.90;;
51616;SDS011;37697;52.588;13.394;2023-03-03T08:23:42;11.10;;;5.80;;
51616;SDS011;37697;52.588;13.394;2023-03-03T08:29:08;12.40;;;6.50;;
51616;SDS011;37697;52.588;13.394;2023-03-03T08:34:33;11.30;;;6.00;;
51616;SDS011;37697;52.588;13.394;2023-03-03T08:39:59;11.10;;;5.20;;
51616;SDS011;37697;52.588;13.394;2023-03-03T08:45:26;12.70;;;7.10;;
51616;SDS011;37697;52.588;13.394;2023-03-03T08:50:50;13.00;;;6.90;;
51616;SDS011;37697;52.588;13.394;2023-03-03T08:56:18;11.80;;;5.70;;
51616;SDS011;37697;52.588;13.394;2023-03-03T09:01:45;13.70;;;7.70;;
51616;SDS011;37697;52.588;13.394;2023-03-03T09:07:10;12.60;;;5.90;;
51616;SDS011;37697;52.588;13.394;2023-03-03T09:12:37;12.80;;;6.90;;
51616;SDS011;37697;52.588;13.394;2023-03-03T09:18:09;12.90;;;7.30;;
51616;SDS011;37697;52.588;13.394;2023-03-03T09:23:41;13.20;;;6.80;;
51616;SDS011;37697;52.588;13.394;2023-03-03T09:29:17;13.20;;;7.50;;
51616;SDS011;37697;52.588;13.394;2023-03-03T09:34:47;13.30;;;7.00;;
51616;SDS011;37697;52.588;13.394;2023-03-03T09:40:10;10.80;;;5.70;;
51616;SDS011;37697;52.588;13.394;2023-03-03T09:46:01;11.70;;;6.10;;
51616;SDS011;37697;52.588;13.394;2023-03-03T09:51:33;13.40;;;6.90;;
51616;SDS011;37697;52.588;13.394;2023-03-03T09:57:12;10.00;;;5.40;;
51616;SDS011;37697;52.588;13.394;2023-03-03T10:02:45;15.10;;;8.20;;
51616;SDS011;37697;52.588;13.394;2023-03-03T10:08:35;14.30;;;7.30;;
51616;SDS011;37697;52.588;13.394;2023-03-03T10:20:11;14.70;;;8.00;;
51616;SDS011;37697;52.588;13.394;2023-03-03T10:25:59;13.00;;;7.60;;
51616;SDS011;37697;52.588;13.394;2023-03-03T10:31:51;12.80;;;7.30;;
51616;SDS011;37697;52.588;13.394;2023-03-03T10:37:45;15.20;;;8.00;;
51616;SDS011;37697;52.588;13.394;2023-03-03T10:43:27;12.80;;;7.00;;
51616;SDS011;37697;52.588;13.394;2023-03-03T10:49:13;14.50;;;7.90;;
51616;SDS011;37697;52.588;13.394;2023-03-03T10:54:54;18.00;;;9.10;;
51616;SDS011;37697;52.588;13.394;2023-03-03T11:00:32;20.20;;;10.70;;
51616;SDS011;37697;52.588;13.394;2023-03-03T11:06:05;20.20;;;10.60;;
51616;SDS011;37697;52.588;13.394;2023-03-03T11:11:35;19.50;;;10.60;;
51616;SDS011;37697;52.588;13.394;2023-03-03T11:17:07;19.70;;;10.20;;
51616;SDS011;37697;52.588;13.394;2023-03-03T11:22:41;20.60;;;11.60;;
51616;SDS011;37697;52.588;13.394;2023-03-03T11:28:23;22.00;;;10.90;;
51616;SDS011;37697;52.588;13.394;2023-03-03T11:34:02;21.60;;;10.90;;
51616;SDS011;37697;52.588;13.394;2023-03-03T11:39:38;17.40;;;9.20;;
51616;SDS011;37697;52.588;13.394;2023-03-03T11:45:12;17.80;;;10.00;;
51616;SDS011;37697;52.588;13.394;2023-03-03T11:50:42;20.60;;;11.30;;
51616;SDS011;37697;52.588;13.394;2023-03-03T11:56:18;25.70;;;12.30;;
51616;SDS011;37697;52.588;13.394;2023-03-03T12:01:48;22.60;;;11.60;;
51616;SDS011;37697;52.588;13.394;2023-03-03T12:07:22;19.50;;;11.40;;
51616;SDS011;37697;52.588;13.394;2023-03-03T12:12:57;19.10;;;10.00;;
51616;SDS011;37697;52.588;13.394;2023-03-03T12:18:26;18.30;;;9.90;;
51616;SDS011;37697;52.588;13.394;2023-03-03T12:24:14;27.80;;;13.20;;
51616;SDS011;37697;52.588;13.394;2023-03-03T12:29:54;22.70;;;11.40;;
51616;SDS011;37697;52.588;13.394;2023-03-03T12:35:31;21.00;;;11.30;;
51616;SDS011;37697;52.588;13.394;2023-03-03T12:41:06;22.20;;;11.60;;
51616;SDS011;37697;52.588;13.394;2023-03-03T12:46:38;19.70;;;10.30;;
51616;SDS011;37697;52.588;13.394;2023-03-03T12:52:12;19.50;;;10.60;;
51616;SDS011;37697;52.588;13.394;2023-03-03T12:57:49;21.60;;;12.50;;
51616;SDS011;37697;52.588;13.394;2023-03-03T13:03:20;21.00;;;11.70;;
51616;SDS011;37697;52.588;13.394;2023-03-03T13:09:02;19.10;;;11.10;;
51616;SDS011;37697;52.588;13.394;2023-03-03T13:14:42;20.90;;;10.50;;
51616;SDS011;37697;52.588;13.394;2023-03-03T13:20:20;19.00;;;11.20;;
51616;SDS011;37697;52.588;13.394;2023-03-03T13:25:54;19.10;;;10.60;;
51616;SDS011;37697;52.588;13.394;2023-03-03T13:31:28;20.00;;;11.90;;
51616;SDS011;37697;52.588;13.394;2023-03-03T13:37:01;21.10;;;11.00;;
51616;SDS011;37697;52.588;13.394;2023-03-03T13:42:36;22.00;;;11.00;;
51616;SDS011;37697;52.588;13.394;2023-03-03T13:48:09;17.50;;;10.90;;
51616;SDS011;37697;52.588;13.394;2023-03-03T13:53:49;19.40;;;11.20;;
51616;SDS011;37697;52.588;13.394;2023-03-03T13:59:23;20.10;;;10.90;;
51616;SDS011;37697;52.588;13.394;2023-03-03T14:05:00;21.00;;;12.10;;
51616;SDS011;37697;52.588;13.394;2023-03-03T14:10:29;19.30;;;11.90;;
51616;SDS011;37697;52.588;13.394;2023-03-03T14:16:00;22.00;;;11.90;;
51616;SDS011;37697;52.588;13.394;2023-03-03T14:21:34;18.20;;;9.80;;
51616;SDS011;37697;52.588;13.394;2023-03-03T14:27:05;17.60;;;10.30;;
51616;SDS011;37697;52.588;13.394;2023-03-03T14:32:57;21.50;;;12.60;;
51616;SDS011;37697;52.588;13.394;2023-03-03T14:38:36;22.20;;;12.40;;
51616;SDS011;37697;52.588;13.394;2023-03-03T14:44:23;21.10;;;12.10;;
51616;SDS011;37697;52.588;13.394;2023-03-03T14:49:51;19.60;;;11.20;;
51616;SDS011;37697;52.588;13.394;2023-03-03T15:01:11;18.30;;;10.60;;
51616;SDS011;37697;52.588;13.394;2023-03-03T15:06:45;19.70;;;11.50;;
51616;SDS011;37697;52.588;13.394;2023-03-03T15:12:18;20.90;;;12.00;;
51616;SDS011;37697;52.588;13.394;2023-03-03T15:17:36;22.80;;;13.20;;
51616;SDS011;37697;52.588;13.394;2023-03-03T15:23:20;17.90;;;11.70;;
51616;SDS011;37697;52.588;13.394;2023-03-03T15:28:58;22.50;;;12.70;;
51616;SDS011;37697;52.588;13.394;2023-03-03T15:34:32;20.30;;;12.50;;
51616;SDS011;37697;52.588;13.394;2023-03-03T15:40:10;19.40;;;12.10;;
51616;SDS011;37697;52.588;13.394;2023-03-03T15:45:47;22.70;;;13.00;;
51616;SDS011;37697;52.588;13.394;2023-03-03T15:51:24;21.00;;;12.90;;
51616;SDS011;37697;52.588;13.394;2023-03-03T15:57:09;22.10;;;12.90;;
51616;SDS011;37697;52.588;13.394;2023-03-03T16:02:45;22.50;;;13.40;;
51616;SDS011;37697;52.588;13.394;2023-03-03T16:08:16;21.60;;;12.70;;
51616;SDS011;37697;52.588;13.394;2023-03-03T16:13:53;23.10;;;14.20;;
51616;SDS011;37697;52.588;13.394;2023-03-03T16:25:02;20.60;;;12.00;;
51616;SDS011;37697;52.588;13.394;2023-03-03T16:30:45;18.20;;;11.60;;
51616;SDS011;37697;52.588;13.394;2023-03-03T16:36:21;18.50;;;11.60;;
51616;SDS011;37697;52.588;13.394;2023-03-03T16:41:54;24.20;;;13.20;;
51616;SDS011;37697;52.588;13.394;2023-03-03T16:47:31;19.30;;;11.40;;
51616;SDS011;37697;52.588;13.394;2023-03-03T16:53:08;19.00;;;11.10;;
51616;SDS011;37697;52.588;13.394;2023-03-03T16:58:44;21.30;;;13.10;;
51616;SDS011;37697;52.588;13.394;2023-03-03T17:04:27;20.30;;;11.10;;
51616;SDS011;37697;52.588;13.394;2023-03-03T17:10:02;19.20;;;11.60;;
51616;SDS011;37697;52.588;13.394;2023-03-03T17:15:41;20.30;;;12.20;;
51616;SDS011;37697;52.588;13.394;2023-03-03T17:21:17;20.80;;;11.60;;
51616;SDS011;37697;52.588;13.394;2023-03-03T17:26:52;19.70;;;11.60;;
51616;SDS011;37697;52.588;13.394;2023-03-03T17:32:36;20.20;;;12.10;;
51616;SDS011;37697;52.588;13.394;2023-03-03T17:38:15;19.60;;;11.60;;
51616;SDS011;37697;52.588;13.394;2023-03-03T17:43:52;22.60;;;12.40;;
51616;SDS011;37697;52.588;13.394;2023-03-03T17:49:32;20.60;;;11.30;;
51616;SDS011;37697;52.588;13.394;2023-03-03T17:55:13;20.00;;;12.60;;
51616;SDS011;37697;52.588;13.394;2023-03-03T18:01:00;19.70;;;11.90;;
51616;SDS011;37697;52.588;13.394;2023-03-03T18:06:47;21.00;;;12.30;;
51616;SDS011;37697;52.588;13.394;2023-03-03T18:12:29;22.60;;;12.10;;
51616;SDS011;37697;52.588;13.394;2023-03-03T18:18:13;23.70;;;14.20;;
51616;SDS011;37697;52.588;13.394;2023-03-03T18:23:50;21.00;;;12.40;;
51616;SDS011;37697;52.588;13.394;2023-03-03T18:29:36;22.00;;;13.20;;
51616;SDS011;37697;52.588;13.394;2023-03-03T18:40:49;22.20;;;12.90;;
51616;SDS011;37697;52.588;13.394;2023-03-03T18:52:17;22.80;;;14.70;;
51616;SDS011;37697;52.588;13.394;2023-03-03T18:58:04;24.20;;;15.20;;
51616;SDS011;37697;52.588;13.394;2023-03-03T19:04:00;25.90;;;15.40;;
51616;SDS011;37697;52.588;13.394;2023-03-03T19:15:01;21.40;;;11.40;;
51616;SDS011;37697;52.588;13.394;2023-03-03T19:20:55;27.30;;;16.40;;
51616;SDS011;37697;52.588;13.394;2023-03-03T19:32:17;22.20;;;14.40;;
51616;SDS011;37697;52.588;13.394;2023-03-03T19:37:56;25.20;;;15.20;;
51616;SDS011;37697;52.588;13.394;2023-03-03T19:43:34;26.30;;;14.90;;
51616;SDS011;37697;52.588;13.394;2023-03-03T19:49:11;26.50;;;15.00;;
51616;SDS011;37697;52.588;13.394;2023-03-03T19:55:04;22.30;;;13.50;;
51616;SDS011;37697;52.588;13.394;2023-03-03T20:00:44;25.60;;;16.00;;
51616;SDS011;37697;52.588;13.394;2023-03-03T20:06:24;24.50;;;14.90;;
51616;SDS011;37697;52.588;13.394;2023-03-03T20:12:09;23.90;;;12.60;;
51616;SDS011;37697;52.588;13.394;2023-03-03T20:23:57;21.80;;;12.80;;
51616;SDS011;37697;52.588;13.394;2023-03-03T20:29:39;20.00;;;11.30;;
51616;SDS011;37697;52.588;13.394;2023-03-03T20:35:19;17.60;;;10.40;;
51616;SDS011;37697;52.588;13.394;2023-03-03T20:41:04;13.20;;;8.30;;
51616;SDS011;37697;52.588;13.394;2023-03-03T20:46:39;12.20;;;6.20;;
51616;SDS011;37697;52.588;13.394;2023-03-03T20:52:22;12.20;;;6.80;;
51616;SDS011;37697;52.588;13.394;2023-03-03T20:57:58;15.60;;;6.90;;
51616;SDS011;37697;52.588;13.394;2023-03-03T21:03:30;12.70;;;6.80;;
51616;SDS011;37697;52.588;13.394;2023-03-03T21:09:00;13.00;;;6.00;;
51616;SDS011;37697;52.588;13.394;2023-03-03T21:14:27;12.30;;;6.90;;
51616;SDS011;37697;52.588;13.394;2023-03-03T21:19:54;12.10;;;7.20;;
51616;SDS011;37697;52.588;13.394;2023-03-03T21:25:44;13.30;;;8.00;;
51616;SDS011;37697;52.588;13.394;2023-03-03T21:36:45;15.50;;;8.40;;
51616;SDS011;37697;52.588;13.394;2023-03-03T21:42:12;16.80;;;9.00;;
51616;SDS011;37697;52.588;13.394;2023-03-03T21:47:40;16.70;;;9.10;;
51616;SDS011;37697;52.588;13.394;2023-03-03T21:53:06;18.50;;;10.20;;
51616;SDS011;37697;52.588;13.394;2023-03-03T21:58:32;16.70;;;9.70;;
51616;SDS011;37697;52.588;13.394;2023-03-03T22:03:58;16.10;;;9.60;;
51616;SDS011;37697;52.588;13.394;2023-03-03T22:09:24;18.30;;;9.80;;
51616;SDS011;37697;52.588;13.394;2023-03-03T22:14:50;16.90;;;10.90;;
51616;SDS011;37697;52.588;13.394;2023-03-03T22:20:11;19.70;;;10.30;;
51616;SDS011;37697;52.588;13.394;2023-03-03T22:25:41;19.50;;;10.10;;
51616;SDS011;37697;52.588;13.394;2023-03-03T22:31:07;16.70;;;9.90;;
51616;SDS011;37697;52.588;13.394;2023-03-03T22:36:33;15.70;;;8.70;;
51616;SDS011;37697;52.588;13.394;2023-03-03T22:41:59;18.30;;;10.00;;
51616;SDS011;37697;52.588;13.394;2023-03-03T22:47:25;16.40;;;9.10;;
51616;SDS011;37697;52.588;13.394;2023-03-03T22:52:51;14.10;;;8.70;;
51616;SDS011;37697;52.588;13.394;2023-03-03T22:58:17;17.90;;;9.10;;
51616;SDS011;37697;52.588;13.394;2023-03-03T23:03:44;19.40;;;9.60;;
51616;SDS011;37697;52.588;13.394;2023-03-03T23:09:10;19.60;;;11.80;;
51616;SDS011;37697;52.588;13.394;2023-03-03T23:14:34;22.30;;;11.50;;
51616;SDS011;37697;52.588;13.394;2023-03-03T23:20:00;24.80;;;12.40;;
51616;SDS011;37697;52.588;13.394;2023-03-03T23:25:26;19.30;;;11.40;;
51616;SDS011;37697;52.588;13.394;2023-03-03T23:30:52;27.90;;;14.30;;
51616;SDS011;37697;52.588;13.394;2023-03-03T23:36:18;30.20;;;17.20;;
51616;SDS011;37697;52.588;13.394;2023-03-03T23:41:44;35.70;;;18.30;;
51616;SDS011;37697;52.588;13.394;2023-03-03T23:47:09;34.80;;;19.50;;
51616;SDS011;37697;52.588;13.394;2023-03-03T23:52:35;35.40;;;18.70;;
51616;SDS011;37697;52.588;13.394;2023-03-03T23:58:01;32.80;;;17.80;;
